createdAt,value
2019-03-19T00:01:35.207Z,55.44
2019-03-19T00:04:01.935Z,55.39
2019-03-19T00:06:28.681Z,55.54
2019-03-19T00:08:55.549Z,55.36
2019-03-19T00:11:22.278Z,55.28
2019-03-19T00:13:49.031Z,55.31
2019-03-19T00:16:15.824Z,54.90
2019-03-19T00:18:42.516Z,55.21
2019-03-19T00:21:09.279Z,54.93
2019-03-19T00:23:36.063Z,54.78
2019-03-19T00:26:02.905Z,55.23
2019-03-19T00:28:29.646Z,55.54
2019-03-19T00:30:56.422Z,55.44
2019-03-19T00:33:23.205Z,55.53
2019-03-19T00:35:49.940Z,55.32
2019-03-19T00:38:16.716Z,55.68
2019-03-19T00:40:43.441Z,55.53
2019-03-19T00:43:10.332Z,55.77
2019-03-19T00:45:37.057Z,55.66
2019-03-19T00:48:03.968Z,55.71
2019-03-19T00:50:30.839Z,54.94
2019-03-19T00:52:57.573Z,54.81
2019-03-19T00:55:24.290Z,54.74
2019-03-19T00:57:51.179Z,54.78
2019-03-19T01:00:19.428Z,55.04
2019-03-19T01:02:46.141Z,54.85
2019-03-19T01:05:13.247Z,54.80
2019-03-19T01:07:39.969Z,54.90
2019-03-19T01:10:11.798Z,55.06
2019-03-19T01:12:38.544Z,55.35
2019-03-19T01:15:09.172Z,55.76
2019-03-19T01:17:36.035Z,56.04
2019-03-19T01:20:09.819Z,55.82
2019-03-19T01:22:36.638Z,55.67
2019-03-19T01:25:06.681Z,55.57
2019-03-19T01:27:33.491Z,55.77
2019-03-19T01:30:00.369Z,55.75
2019-03-19T01:32:27.088Z,55.57
2019-03-19T01:34:53.831Z,55.06
2019-03-19T01:37:20.605Z,54.70
2019-03-19T01:39:47.377Z,54.47
2019-03-19T01:42:14.228Z,54.75
2019-03-19T01:44:40.971Z,55.21
2019-03-19T01:47:07.691Z,55.31
2019-03-19T01:49:34.611Z,55.38
2019-03-19T01:52:01.362Z,55.42
2019-03-19T01:54:28.094Z,55.54
2019-03-19T01:56:54.973Z,55.36
2019-03-19T01:59:21.706Z,55.39
2019-03-19T02:01:48.444Z,55.65
2019-03-19T02:04:15.240Z,55.45
2019-03-19T02:06:41.984Z,55.48
2019-03-19T02:09:08.707Z,55.69
2019-03-19T02:11:35.493Z,55.38
2019-03-19T02:14:02.233Z,55.34
2019-03-19T02:16:29.112Z,55.43
2019-03-19T02:18:55.853Z,55.61
2019-03-19T02:21:22.582Z,55.84
2019-03-19T02:23:49.464Z,55.67
2019-03-19T02:26:17.052Z,54.70
2019-03-19T02:28:43.938Z,54.42
2019-03-19T02:31:10.720Z,54.54
2019-03-19T02:33:37.487Z,54.68
2019-03-19T02:36:04.431Z,55.16
2019-03-19T02:38:31.159Z,55.98
2019-03-19T02:40:57.884Z,55.54
2019-03-19T02:43:24.637Z,55.01
2019-03-19T02:45:51.374Z,54.87
2019-03-19T02:48:18.273Z,55.08
2019-03-19T02:50:45.023Z,55.08
2019-03-19T02:53:11.769Z,55.52
2019-03-19T02:55:38.527Z,55.92
2019-03-19T02:58:05.261Z,56.28
2019-03-19T03:00:32.128Z,55.90
2019-03-19T03:02:58.851Z,55.58
2019-03-19T03:05:25.685Z,55.34
2019-03-19T03:07:52.663Z,55.35
2019-03-19T03:10:19.392Z,55.64
2019-03-19T03:12:46.122Z,55.97
2019-03-19T03:15:13.898Z,56.13
2019-03-19T03:17:40.845Z,55.97
2019-03-19T03:20:13.530Z,55.87
2019-03-19T03:22:40.255Z,55.71
2019-03-19T03:25:11.614Z,55.40
2019-03-19T03:27:38.499Z,55.44
2019-03-19T03:30:14.797Z,55.79
2019-03-19T03:32:41.718Z,55.74
2019-03-19T03:35:10.090Z,55.74
2019-03-19T03:37:36.796Z,55.25
2019-03-19T03:40:09.098Z,54.57
2019-03-19T03:42:35.948Z,54.83
2019-03-19T03:45:06.581Z,55.32
2019-03-19T03:47:33.455Z,55.70
2019-03-19T03:50:00.302Z,55.90
2019-03-19T03:52:27.221Z,56.07
2019-03-19T03:54:54.097Z,55.85
2019-03-19T03:57:20.845Z,55.50
2019-03-19T03:59:47.558Z,55.86
2019-03-19T04:02:14.540Z,56.28
2019-03-19T04:04:41.283Z,55.32
2019-03-19T04:07:08.048Z,55.05
2019-03-19T04:09:34.920Z,55.13
2019-03-19T04:12:01.669Z,55.51
2019-03-19T04:14:28.551Z,55.81
2019-03-19T04:16:55.268Z,55.97
2019-03-19T04:19:22.013Z,55.94
2019-03-19T04:21:48.894Z,55.69
2019-03-19T04:24:15.624Z,55.68
2019-03-19T04:26:42.369Z,55.83
2019-03-19T04:29:09.235Z,55.77
2019-03-19T04:31:35.980Z,55.93
2019-03-19T04:34:02.832Z,56.19
2019-03-19T04:36:29.698Z,56.08
2019-03-19T04:38:56.433Z,55.49
2019-03-19T04:41:23.167Z,55.35
2019-03-19T04:43:50.053Z,55.47
2019-03-19T04:46:16.790Z,55.83
2019-03-19T04:48:43.537Z,55.67
2019-03-19T04:51:10.409Z,55.70
2019-03-19T04:53:37.138Z,56.35
2019-03-19T04:56:03.941Z,55.97
2019-03-19T04:58:30.818Z,55.52
2019-03-19T05:00:57.542Z,55.60
2019-03-19T05:03:24.278Z,55.44
2019-03-19T05:05:51.054Z,55.70
2019-03-19T05:08:17.817Z,56.13
2019-03-19T05:10:44.685Z,56.06
2019-03-19T05:13:11.439Z,56.13
2019-03-19T05:15:38.190Z,56.00
2019-03-19T05:18:05.094Z,56.01
2019-03-19T05:20:31.855Z,55.84
2019-03-19T05:22:58.728Z,55.78
2019-03-19T05:25:25.490Z,55.65
2019-03-19T05:27:52.229Z,56.13
2019-03-19T05:30:19.928Z,56.76
2019-03-19T05:32:46.673Z,56.41
2019-03-19T05:35:13.449Z,56.42
2019-03-19T05:37:40.316Z,56.38
2019-03-19T05:40:15.664Z,56.74
2019-03-19T05:42:42.707Z,56.46
2019-03-19T05:45:13.497Z,56.71
2019-03-19T05:47:40.721Z,56.96
2019-03-19T05:50:11.521Z,56.64
2019-03-19T05:52:38.273Z,56.64
2019-03-19T05:55:07.264Z,56.65
2019-03-19T05:57:34.177Z,56.98
2019-03-19T06:00:00.921Z,56.85
2019-03-19T06:02:27.799Z,56.83
2019-03-19T06:04:54.526Z,57.04
2019-03-19T06:07:21.284Z,57.20
2019-03-19T06:09:48.177Z,57.05
2019-03-19T06:12:14.911Z,57.08
2019-03-19T06:14:41.666Z,56.95
2019-03-19T06:17:08.523Z,56.81
2019-03-19T06:19:35.272Z,56.67
2019-03-19T06:22:02.033Z,56.41
2019-03-19T06:24:28.808Z,56.70
2019-03-19T06:26:55.540Z,57.28
2019-03-19T06:29:22.279Z,57.15
2019-03-19T06:31:49.039Z,56.63
2019-03-19T06:34:15.787Z,57.05
2019-03-19T06:36:42.615Z,57.23
2019-03-19T06:39:09.455Z,57.07
2019-03-19T06:41:36.163Z,56.97
2019-03-19T06:44:02.941Z,57.11
2019-03-19T06:46:29.695Z,56.85
2019-03-19T06:48:56.426Z,56.64
2019-03-19T06:51:23.158Z,56.57
2019-03-19T06:53:49.996Z,56.76
2019-03-19T06:56:16.722Z,57.43
2019-03-19T06:58:43.611Z,58.14
2019-03-19T07:01:10.352Z,57.53
2019-03-19T07:03:37.092Z,57.67
2019-03-19T07:06:03.980Z,57.15
2019-03-19T07:08:30.697Z,57.17
2019-03-19T07:10:57.440Z,57.30
2019-03-19T07:13:24.227Z,57.70
2019-03-19T07:15:50.965Z,58.30
2019-03-19T07:18:17.846Z,57.62
2019-03-19T07:20:44.600Z,57.54
2019-03-19T07:23:11.336Z,57.92
2019-03-19T07:25:38.233Z,57.42
2019-03-19T07:28:05.078Z,57.12
2019-03-19T07:30:31.941Z,58.27
2019-03-19T07:32:58.793Z,58.08
2019-03-19T07:35:25.514Z,57.82
2019-03-19T07:37:52.299Z,57.62
2019-03-19T07:40:19.163Z,57.73
2019-03-19T07:42:45.988Z,58.79
2019-03-19T07:45:20.196Z,59.45
2019-03-19T07:47:47.076Z,58.70
2019-03-19T07:50:15.914Z,58.19
2019-03-19T07:52:42.796Z,58.62
2019-03-19T07:55:09.625Z,58.83
2019-03-19T07:57:36.350Z,59.66
2019-03-19T08:00:10.970Z,59.35
2019-03-19T08:02:37.715Z,58.58
2019-03-19T08:05:07.973Z,58.25
2019-03-19T08:07:34.905Z,58.33
2019-03-19T08:10:02.146Z,59.12
2019-03-19T08:12:28.876Z,59.65
2019-03-19T08:14:55.767Z,60.10
2019-03-19T08:17:22.529Z,59.51
2019-03-19T08:19:49.281Z,58.25
2019-03-19T08:22:16.058Z,57.77
2019-03-19T08:24:42.810Z,57.83
2019-03-19T08:27:09.667Z,57.19
2019-03-19T08:29:36.413Z,57.24
2019-03-19T08:32:03.142Z,56.77
2019-03-19T08:34:30.048Z,56.19
2019-03-19T08:36:56.792Z,55.69
2019-03-19T08:39:23.575Z,55.55
2019-03-19T08:41:50.443Z,55.36
2019-03-19T08:44:27.291Z,55.00
2019-03-19T08:46:45.719Z,55.27
2019-03-19T08:49:12.495Z,55.90
2019-03-19T08:51:39.235Z,56.15
2019-03-19T08:54:06.122Z,55.81
2019-03-19T08:56:32.858Z,56.24
2019-03-19T08:59:05.741Z,54.97
2019-03-19T09:01:28.281Z,54.37
2019-03-19T09:03:55.027Z,53.52
2019-03-19T09:06:21.745Z,53.44
2019-03-19T09:08:50.335Z,53.13
2019-03-19T09:11:17.054Z,53.48
2019-03-19T09:13:43.925Z,53.46
2019-03-19T09:16:10.676Z,52.90
2019-03-19T09:18:37.399Z,53.40
2019-03-19T09:21:04.336Z,52.34
2019-03-19T09:23:33.196Z,51.74
2019-03-19T09:25:59.553Z,51.91
2019-03-19T09:28:26.435Z,52.56
2019-03-19T09:30:53.170Z,53.10
2019-03-19T09:33:19.903Z,54.47
2019-03-19T09:35:46.666Z,54.74
2019-03-19T09:38:13.393Z,54.89
2019-03-19T09:40:40.319Z,55.03
2019-03-19T09:43:07.053Z,55.94
2019-03-19T09:45:33.806Z,56.00
2019-03-19T09:48:00.838Z,55.00
2019-03-19T09:50:27.561Z,53.90
2019-03-19T09:52:54.326Z,54.18
2019-03-19T09:55:21.224Z,54.97
2019-03-19T09:57:48.880Z,54.21
2019-03-19T10:00:22.041Z,54.21
2019-03-19T10:02:49.020Z,55.11
2019-03-19T10:05:16.478Z,54.85
2019-03-19T10:07:43.232Z,53.24
2019-03-19T10:10:20.013Z,51.94
2019-03-19T10:12:46.767Z,51.47
2019-03-19T10:15:14.093Z,51.64
2019-03-19T10:17:40.883Z,50.61
2019-03-19T10:20:18.306Z,50.59
2019-03-19T10:22:45.750Z,48.25
2019-03-19T10:25:13.996Z,48.38
2019-03-19T10:27:40.765Z,48.45
2019-03-19T10:30:19.528Z,50.12
2019-03-19T10:32:46.459Z,48.33
2019-03-19T10:35:13.356Z,47.96
2019-03-19T10:37:40.103Z,47.10
2019-03-19T10:40:09.823Z,47.43
2019-03-19T10:42:36.606Z,47.01
2019-03-19T10:45:15.589Z,46.66
2019-03-19T10:47:42.688Z,47.47
2019-03-19T10:50:26.365Z,47.88
2019-03-19T10:52:53.359Z,47.81
2019-03-19T10:55:20.184Z,47.28
2019-03-19T10:57:46.941Z,45.28
2019-03-19T11:00:25.732Z,43.01
2019-03-19T11:02:52.680Z,42.02
2019-03-19T11:05:25.968Z,38.34
2019-03-19T11:07:52.713Z,37.07
2019-03-19T11:10:19.657Z,33.13
2019-03-19T11:12:46.538Z,32.47
2019-03-19T11:15:21.967Z,30.56
2019-03-19T11:17:48.842Z,30.85
2019-03-19T11:20:17.197Z,28.72
2019-03-19T11:22:44.038Z,28.65
2019-03-19T11:25:14.947Z,28.47
2019-03-19T11:27:42.591Z,27.49
2019-03-19T11:30:19.295Z,26.75
2019-03-19T11:32:46.063Z,27.83
2019-03-19T11:35:13.478Z,27.11
2019-03-19T11:37:40.351Z,27.43
2019-03-19T11:40:15.469Z,27.75
2019-03-19T11:42:42.549Z,26.89
2019-03-19T11:45:20.165Z,26.64
2019-03-19T11:47:47.046Z,26.52
2019-03-19T11:50:23.802Z,25.98
2019-03-19T11:52:51.213Z,27.47
2019-03-19T11:55:18.860Z,27.75
2019-03-19T11:57:45.616Z,26.84
2019-03-19T12:00:27.468Z,26.90
2019-03-19T12:02:54.244Z,26.62
2019-03-19T12:05:21.000Z,26.94
2019-03-19T12:07:47.872Z,27.82
2019-03-19T12:10:14.618Z,26.82
2019-03-19T12:12:41.350Z,27.12
2019-03-19T12:15:10.246Z,28.32
2019-03-19T12:17:37.000Z,27.91
2019-03-19T12:20:09.272Z,28.64
2019-03-19T12:22:36.034Z,26.89
2019-03-19T12:25:06.231Z,30.37
2019-03-19T12:27:33.404Z,28.83
2019-03-19T12:30:00.116Z,30.58
2019-03-19T12:32:26.839Z,30.75
2019-03-19T12:34:53.736Z,30.96
2019-03-19T12:37:20.486Z,32.68
2019-03-19T12:39:47.225Z,30.62
2019-03-19T12:42:14.148Z,32.42
2019-03-19T12:44:40.916Z,34.17
2019-03-19T12:47:07.649Z,34.08
2019-03-19T12:49:34.539Z,37.96
2019-03-19T12:52:01.269Z,40.08
2019-03-19T12:54:28.013Z,39.56
2019-03-19T12:56:54.795Z,43.50
2019-03-19T12:59:21.556Z,43.95
2019-03-19T13:01:48.417Z,41.96
2019-03-19T13:04:15.167Z,39.22
2019-03-19T13:06:41.923Z,39.14
2019-03-19T13:09:08.727Z,40.64
2019-03-19T13:11:35.476Z,38.35
2019-03-19T13:14:02.326Z,37.65
2019-03-19T13:16:29.065Z,37.67
2019-03-19T13:18:55.808Z,40.10
2019-03-19T13:21:22.587Z,40.90
2019-03-19T13:23:49.310Z,41.81
2019-03-19T13:26:16.198Z,43.31
2019-03-19T13:28:43.425Z,45.57
2019-03-19T13:31:10.261Z,45.87
2019-03-19T13:33:37.079Z,45.14
2019-03-19T13:36:04.775Z,44.76
2019-03-19T13:38:31.508Z,42.60
2019-03-19T13:40:58.382Z,43.63
2019-03-19T13:43:25.173Z,44.52
2019-03-19T13:45:51.916Z,42.77
2019-03-19T13:48:18.702Z,42.34
2019-03-19T13:50:45.455Z,42.26
2019-03-19T13:53:12.327Z,42.54
2019-03-19T13:55:39.067Z,43.16
2019-03-19T13:58:05.804Z,43.77
2019-03-19T14:00:32.686Z,43.51
2019-03-19T14:02:59.485Z,41.79
2019-03-19T14:05:26.189Z,42.45
2019-03-19T14:07:53.067Z,42.14
2019-03-19T14:10:20.012Z,43.06
2019-03-19T14:12:47.252Z,42.11
2019-03-19T14:15:17.447Z,42.76
2019-03-19T14:17:44.186Z,42.80
2019-03-19T14:20:16.913Z,41.93
2019-03-19T14:22:45.187Z,40.72
2019-03-19T14:25:14.084Z,43.49
2019-03-19T14:27:40.980Z,42.75
2019-03-19T14:30:15.164Z,43.64
2019-03-19T14:32:41.914Z,43.34
2019-03-19T14:35:08.903Z,42.20
2019-03-19T14:37:35.633Z,42.09
2019-03-19T14:40:09.514Z,42.38
2019-03-19T14:42:36.405Z,41.55
2019-03-19T14:45:06.901Z,40.01
2019-03-19T14:47:33.639Z,40.82
2019-03-19T14:50:00.449Z,41.82
2019-03-19T14:52:27.170Z,40.89
2019-03-19T14:54:54.105Z,41.08
2019-03-19T14:57:20.862Z,41.95
2019-03-19T14:59:47.608Z,42.15
2019-03-19T15:02:14.414Z,42.68
2019-03-19T15:04:41.154Z,43.76
2019-03-19T15:07:07.897Z,42.87
2019-03-19T15:09:34.713Z,43.71
2019-03-19T15:12:01.445Z,42.96
2019-03-19T15:14:28.331Z,41.12
2019-03-19T15:17:04.491Z,41.43
2019-03-19T15:19:23.620Z,41.87
2019-03-19T15:21:50.395Z,42.39
2019-03-19T15:24:17.142Z,42.56
2019-03-19T15:26:44.003Z,41.67
2019-03-19T15:29:10.770Z,42.16
2019-03-19T15:31:37.525Z,42.94
2019-03-19T15:34:04.421Z,42.20
2019-03-19T15:36:31.145Z,42.92
2019-03-19T15:38:57.912Z,43.47
2019-03-19T15:41:24.768Z,43.53
2019-03-19T15:43:51.507Z,44.47
2019-03-19T15:46:18.299Z,45.79
2019-03-19T15:48:45.213Z,46.52
2019-03-19T15:51:11.921Z,47.48
2019-03-19T15:53:38.665Z,48.41
2019-03-19T15:56:05.549Z,49.61
2019-03-19T15:58:32.276Z,50.30
2019-03-19T16:00:59.025Z,50.53
2019-03-19T16:03:25.917Z,50.56
2019-03-19T16:05:52.637Z,50.58
2019-03-19T16:08:19.361Z,51.25
2019-03-19T16:10:46.242Z,51.90
2019-03-19T16:13:12.999Z,51.48
2019-03-19T16:15:39.723Z,51.76
2019-03-19T16:18:06.593Z,52.26
2019-03-19T16:20:33.329Z,52.84
2019-03-19T16:23:00.082Z,52.85
2019-03-19T16:25:26.948Z,53.60
2019-03-19T16:28:02.532Z,53.89
2019-03-19T16:30:29.451Z,54.03
2019-03-19T16:32:56.184Z,53.44
2019-03-19T16:35:22.922Z,53.75
2019-03-19T16:37:49.773Z,54.13
2019-03-19T16:40:22.143Z,53.74
2019-03-19T16:42:48.890Z,53.94
2019-03-19T16:45:17.803Z,53.93
2019-03-19T16:47:44.440Z,54.26
2019-03-19T16:50:15.956Z,54.53
2019-03-19T16:52:42.813Z,55.05
2019-03-19T16:55:15.825Z,54.92
2019-03-19T16:57:42.546Z,55.22
2019-03-19T17:00:14.764Z,55.38
2019-03-19T17:02:41.513Z,55.44
2019-03-19T17:05:09.466Z,55.27
2019-03-19T17:07:36.233Z,55.49
2019-03-19T17:10:08.186Z,55.46
2019-03-19T17:12:35.079Z,55.24
2019-03-19T17:15:03.303Z,55.12
2019-03-19T17:17:30.030Z,54.44
2019-03-19T17:19:56.892Z,54.91
2019-03-19T17:22:23.638Z,54.51
2019-03-19T17:24:50.387Z,53.66
2019-03-19T17:27:17.270Z,53.48
2019-03-19T17:29:44.019Z,54.25
2019-03-19T17:32:13.274Z,54.66
2019-03-19T17:34:39.329Z,54.50
2019-03-19T17:37:06.067Z,54.85
2019-03-19T17:39:32.979Z,54.78
2019-03-19T17:41:59.700Z,55.08
2019-03-19T17:44:26.643Z,54.82
2019-03-19T17:46:53.493Z,55.42
2019-03-19T17:49:20.245Z,54.71
2019-03-19T17:51:46.990Z,54.10
2019-03-19T17:54:13.847Z,54.06
2019-03-19T17:56:40.583Z,53.89
2019-03-19T17:59:07.342Z,53.96
2019-03-19T18:01:35.915Z,53.43
2019-03-19T18:04:02.746Z,54.00
2019-03-19T18:06:29.479Z,54.20
2019-03-19T18:08:56.361Z,53.85
2019-03-19T18:11:23.113Z,54.29
2019-03-19T18:13:49.839Z,54.83
2019-03-19T18:16:16.727Z,55.11
2019-03-19T18:18:45.380Z,55.33
2019-03-19T18:21:12.024Z,55.37
2019-03-19T18:23:38.794Z,55.59
2019-03-19T18:26:05.571Z,55.49
2019-03-19T18:28:32.564Z,55.61
2019-03-19T18:30:59.328Z,55.38
2019-03-19T18:33:26.059Z,55.47
2019-03-19T18:35:55.329Z,55.88
2019-03-19T18:38:21.408Z,55.82
2019-03-19T18:40:48.283Z,56.04
2019-03-19T18:43:15.020Z,56.15
2019-03-19T18:45:41.769Z,56.42
2019-03-19T18:48:08.547Z,56.63
2019-03-19T18:50:35.359Z,56.22
2019-03-19T18:53:02.244Z,56.22
2019-03-19T18:55:28.985Z,56.59
2019-03-19T18:57:55.718Z,56.88
2019-03-19T19:00:23.411Z,56.42
2019-03-19T19:02:51.119Z,56.25
2019-03-19T19:05:23.218Z,56.09
2019-03-19T19:07:50.251Z,55.89
2019-03-19T19:10:17.741Z,55.98
2019-03-19T19:12:44.583Z,56.18
2019-03-19T19:15:16.307Z,55.72
2019-03-19T19:17:43.037Z,55.73
2019-03-19T19:20:13.270Z,56.12
2019-03-19T19:22:40.094Z,55.75
2019-03-19T19:25:15.693Z,55.96
2019-03-19T19:27:42.427Z,55.49
2019-03-19T19:30:28.111Z,54.99
2019-03-19T19:33:01.693Z,55.03
2019-03-19T19:35:23.380Z,55.17
2019-03-19T19:37:50.244Z,55.30
2019-03-19T19:40:17.312Z,55.69
2019-03-19T19:42:44.044Z,55.80
2019-03-19T19:45:13.647Z,55.79
2019-03-19T19:47:40.495Z,55.91
2019-03-19T19:50:17.318Z,55.75
2019-03-19T19:52:44.059Z,55.51
2019-03-19T19:55:12.502Z,55.83
2019-03-19T19:57:39.300Z,55.69
2019-03-19T20:00:16.372Z,55.14
2019-03-19T20:02:43.466Z,55.59
2019-03-19T20:05:10.317Z,55.72
2019-03-19T20:07:37.058Z,55.93
2019-03-19T20:10:09.345Z,55.71
2019-03-19T20:12:36.087Z,55.40
2019-03-19T20:15:06.607Z,55.40
2019-03-19T20:17:33.474Z,55.59
2019-03-19T20:20:00.481Z,56.23
2019-03-19T20:22:27.270Z,56.24
2019-03-19T20:24:54.153Z,55.99
2019-03-19T20:27:20.894Z,56.13
2019-03-19T20:29:47.646Z,55.99
2019-03-19T20:32:14.450Z,56.03
2019-03-19T20:34:41.189Z,56.17
2019-03-19T20:37:07.917Z,55.99
2019-03-19T20:39:34.797Z,55.90
2019-03-19T20:42:01.548Z,56.14
2019-03-19T20:44:28.271Z,56.34
2019-03-19T20:46:55.035Z,56.25
2019-03-19T20:49:21.783Z,56.39
2019-03-19T20:51:48.721Z,56.42
2019-03-19T20:54:15.450Z,55.94
2019-03-19T20:56:42.193Z,55.81
2019-03-19T20:59:08.964Z,55.77
2019-03-19T21:01:35.710Z,56.22
2019-03-19T21:04:02.603Z,56.25
2019-03-19T21:06:29.341Z,56.05
2019-03-19T21:08:56.100Z,56.10
2019-03-19T21:11:22.977Z,56.08
2019-03-19T21:13:49.729Z,56.05
2019-03-19T21:16:16.467Z,56.03
2019-03-19T21:18:43.372Z,55.94
2019-03-19T21:21:10.101Z,55.67
2019-03-19T21:23:36.851Z,55.32
2019-03-19T21:26:03.720Z,55.20
2019-03-19T21:28:30.470Z,55.34
2019-03-19T21:30:57.223Z,55.69
2019-03-19T21:33:24.110Z,55.79
2019-03-19T21:35:50.843Z,56.06
2019-03-19T21:38:17.581Z,55.40
2019-03-19T21:40:44.447Z,55.37
2019-03-19T21:43:11.198Z,55.49
2019-03-19T21:45:38.028Z,55.24
2019-03-19T21:48:04.859Z,55.50
2019-03-19T21:50:31.614Z,56.20
2019-03-19T21:52:58.537Z,56.43
2019-03-19T21:55:25.276Z,56.51
2019-03-19T21:57:52.002Z,56.43
2019-03-19T22:00:24.862Z,56.24
2019-03-19T22:02:51.586Z,56.32
2019-03-19T22:05:18.396Z,56.39
2019-03-19T22:07:45.341Z,56.40
2019-03-19T22:10:15.476Z,56.40
2019-03-19T22:12:42.499Z,56.06
2019-03-19T22:15:21.313Z,55.57
2019-03-19T22:17:48.189Z,55.93
2019-03-19T22:20:14.999Z,55.90
2019-03-19T22:22:41.738Z,56.43
2019-03-19T22:25:12.047Z,56.47
2019-03-19T22:27:38.734Z,56.35
2019-03-19T22:30:21.398Z,56.25
2019-03-19T22:32:48.144Z,56.19
2019-03-19T22:35:15.161Z,56.08
2019-03-19T22:37:42.044Z,55.87
2019-03-19T22:40:17.836Z,55.40
2019-03-19T22:42:44.821Z,55.24
2019-03-19T22:45:13.860Z,55.58
2019-03-19T22:47:40.601Z,55.53
2019-03-19T22:50:17.710Z,55.78
2019-03-19T22:52:44.607Z,55.88
2019-03-19T22:55:12.728Z,56.10
2019-03-19T22:57:39.736Z,56.03
2019-03-19T23:00:16.815Z,55.97
2019-03-19T23:02:43.683Z,55.89
2019-03-19T23:05:13.131Z,56.06
2019-03-19T23:07:39.864Z,55.88
2019-03-19T23:10:06.726Z,55.96
2019-03-19T23:12:33.469Z,55.58
2019-03-19T23:15:00.355Z,55.48
2019-03-19T23:17:27.271Z,55.06
2019-03-19T23:19:54.017Z,55.09
2019-03-19T23:22:20.751Z,55.48
2019-03-19T23:24:47.538Z,55.51
2019-03-19T23:27:14.270Z,55.47
2019-03-19T23:29:41.163Z,55.66
2019-03-19T23:32:07.887Z,55.74
2019-03-19T23:34:38.432Z,55.81
2019-03-19T23:37:03.395Z,55.29
2019-03-19T23:39:30.142Z,55.26
2019-03-19T23:41:56.854Z,55.26
2019-03-19T23:44:23.636Z,55.13
2019-03-19T23:46:50.367Z,55.60
2019-03-19T23:49:17.223Z,55.77
2019-03-19T23:51:43.968Z,55.90
2019-03-19T23:54:10.722Z,55.94
2019-03-19T23:56:37.604Z,56.09
2019-03-19T23:59:04.430Z,56.01
